createdAt,value
2018-06-01T00:00:23.160Z,90.66
2018-06-01T00:02:49.017Z,90.47
2018-06-01T00:05:14.838Z,90.23
2018-06-01T00:07:40.680Z,90.57
2018-06-01T00:10:06.532Z,90.47
2018-06-01T00:12:32.369Z,89.80
2018-06-01T00:14:58.220Z,89.12
2018-06-01T00:17:24.117Z,88.50
2018-06-01T00:19:49.976Z,89.73
2018-06-01T00:22:15.819Z,91.35
2018-06-01T00:24:41.692Z,91.74
2018-06-01T00:27:07.553Z,90.20
2018-06-01T00:29:33.425Z,89.80
2018-06-01T00:31:59.297Z,90.12
2018-06-01T00:34:25.161Z,89.81
2018-06-01T00:46:36.081Z,87.54
2018-06-01T00:49:01.941Z,88.62
2018-06-01T00:51:27.775Z,90.36
2018-06-01T00:53:53.640Z,89.80
2018-06-01T00:56:19.494Z,88.76
2018-06-01T00:58:45.392Z,89.23
2018-06-01T01:01:11.270Z,90.12
2018-06-01T01:03:37.120Z,91.96
2018-06-01T01:06:02.982Z,93.35
2018-06-01T01:08:28.841Z,94.56
2018-06-01T01:10:54.674Z,94.13
2018-06-01T01:13:20.540Z,94.25
2018-06-01T01:15:46.422Z,93.76
2018-06-01T01:18:12.409Z,93.14
2018-06-01T01:20:38.277Z,92.13
2018-06-01T01:23:04.123Z,92.07
2018-06-01T01:25:29.995Z,91.80
2018-06-01T01:27:55.848Z,90.93
2018-06-01T01:30:21.697Z,90.39
2018-06-01T01:32:47.528Z,89.70
2018-06-01T01:35:13.389Z,90.79
2018-06-01T01:37:39.272Z,90.89
2018-06-01T01:40:05.129Z,91.88
2018-06-01T01:42:30.971Z,93.75
2018-06-01T01:44:56.832Z,94.42
2018-06-01T01:47:22.722Z,94.18
2018-06-01T01:49:52.619Z,93.48
2018-06-01T01:52:18.477Z,93.05
2018-06-01T01:54:44.308Z,93.23
2018-06-01T01:57:10.164Z,93.43
2018-06-01T01:59:36.075Z,92.20
2018-06-01T02:02:01.940Z,93.14
2018-06-01T02:04:27.776Z,92.09
2018-06-01T02:06:53.633Z,92.52
2018-06-01T02:09:19.497Z,92.79
2018-06-01T02:11:45.375Z,91.92
2018-06-01T02:14:11.265Z,92.94
2018-06-01T02:16:37.205Z,92.08
2018-06-01T02:19:03.056Z,91.85
2018-06-01T02:21:28.904Z,93.97
2018-06-01T02:23:54.811Z,94.56
2018-06-01T02:26:20.682Z,95.73
2018-06-01T02:28:46.627Z,95.98
2018-06-01T02:31:12.507Z,95.39
2018-06-01T02:33:38.378Z,94.68
2018-06-01T02:36:04.227Z,95.15
2018-06-01T02:38:30.123Z,95.40
2018-06-01T02:40:55.991Z,94.19
2018-06-01T02:43:21.830Z,93.60
2018-06-01T02:45:47.671Z,93.66
2018-06-01T02:48:13.563Z,93.77
2018-06-01T02:50:40.630Z,93.51
2018-06-01T02:53:06.465Z,94.26
2018-06-01T02:55:32.316Z,94.98
2018-06-01T02:57:58.179Z,95.09
2018-06-01T03:00:24.028Z,94.81
2018-06-01T03:02:49.868Z,95.21
2018-06-01T03:05:15.778Z,94.96
2018-06-01T03:07:41.654Z,94.62
2018-06-01T03:10:07.542Z,92.76
2018-06-01T03:12:33.430Z,91.46
2018-06-01T03:14:59.294Z,91.87
2018-06-01T03:17:25.157Z,93.66
2018-06-01T03:19:51.009Z,93.88
2018-06-01T03:22:16.854Z,92.32
2018-06-01T03:24:42.704Z,93.05
2018-06-01T03:27:08.530Z,93.43
2018-06-01T03:29:34.384Z,93.00
2018-06-01T03:32:00.245Z,91.71
2018-06-01T03:34:26.120Z,90.62
2018-06-01T03:36:51.972Z,91.28
2018-06-01T03:39:17.836Z,92.40
2018-06-01T03:41:43.694Z,93.06
2018-06-01T03:44:09.533Z,93.92
2018-06-01T03:46:35.378Z,93.86
2018-06-01T03:49:01.293Z,93.72
2018-06-01T03:51:27.161Z,93.05
2018-06-01T03:53:53.006Z,93.00
2018-06-01T03:56:18.878Z,92.60
2018-06-01T03:58:44.696Z,92.20
2018-06-01T04:01:10.642Z,94.51
2018-06-01T04:03:36.464Z,95.51
2018-06-01T04:06:02.334Z,96.85
2018-06-01T04:08:28.185Z,97.03
2018-06-01T04:10:54.070Z,96.66
2018-06-01T04:13:19.885Z,96.26
2018-06-01T04:15:45.744Z,96.22
2018-06-01T04:18:11.586Z,96.07
2018-06-01T04:20:37.424Z,95.70
2018-06-01T04:23:03.261Z,94.50
2018-06-01T04:25:29.124Z,95.87
2018-06-01T04:27:54.971Z,96.11
2018-06-01T04:30:20.817Z,94.84
2018-06-01T04:32:46.653Z,94.93
2018-06-01T04:35:12.489Z,96.10
2018-06-01T04:37:38.384Z,95.15
2018-06-01T04:40:04.233Z,95.64
2018-06-01T04:42:30.073Z,96.07
2018-06-01T04:44:55.930Z,95.65
2018-06-01T04:47:21.761Z,95.64
2018-06-01T04:49:47.616Z,94.78
2018-06-01T04:52:13.493Z,92.24
2018-06-01T04:54:39.383Z,92.01
2018-06-01T04:57:05.254Z,94.52
2018-06-01T04:59:31.085Z,95.67
2018-06-01T05:01:56.945Z,95.70
2018-06-01T05:04:22.809Z,95.20
2018-06-01T05:06:48.652Z,94.39
2018-06-01T05:09:14.465Z,93.83
2018-06-01T05:11:40.303Z,94.49
2018-06-01T05:14:06.152Z,94.83
2018-06-01T05:16:32.010Z,95.94
2018-06-01T05:18:57.872Z,96.22
2018-06-01T05:21:23.736Z,96.60
2018-06-01T05:23:49.589Z,96.95
2018-06-01T05:26:15.416Z,96.59
2018-06-01T05:28:41.265Z,96.25
2018-06-01T05:31:07.106Z,97.09
2018-06-01T05:33:32.963Z,96.56
2018-06-01T05:35:58.789Z,96.30
2018-06-01T05:38:24.629Z,96.84
2018-06-01T05:40:50.495Z,96.92
2018-06-01T05:43:16.377Z,97.26
2018-06-01T05:45:42.236Z,97.08
2018-06-01T05:48:08.082Z,96.90
2018-06-01T05:50:33.933Z,96.85
2018-06-01T05:52:59.845Z,97.30
2018-06-01T05:55:25.690Z,97.48
2018-06-01T05:57:51.552Z,97.77
2018-06-01T06:00:17.387Z,97.97
2018-06-01T06:02:43.264Z,97.67
2018-06-01T06:05:09.082Z,96.66
2018-06-01T06:07:34.918Z,96.23
2018-06-01T06:10:00.802Z,94.61
2018-06-01T06:12:26.633Z,93.39
2018-06-01T06:14:52.497Z,93.02
2018-06-01T06:17:18.365Z,94.23
2018-06-01T06:19:44.226Z,93.61
2018-06-01T06:22:10.080Z,93.28
2018-06-01T06:24:35.936Z,93.66
2018-06-01T06:27:01.802Z,93.63
2018-06-01T06:29:27.639Z,92.71
2018-06-01T06:31:53.520Z,93.12
2018-06-01T06:34:19.405Z,92.32
2018-06-01T06:36:45.265Z,91.49
2018-06-01T06:39:11.121Z,91.76
2018-06-01T06:41:37.008Z,91.88
2018-06-01T06:44:02.868Z,92.29
2018-06-01T06:46:28.744Z,92.28
2018-06-01T06:48:54.598Z,92.25
2018-06-01T06:51:20.450Z,91.34
2018-06-01T06:53:46.372Z,91.02
2018-06-01T06:56:12.223Z,90.10
2018-06-01T06:58:38.096Z,90.85
2018-06-01T07:01:04.017Z,90.43
2018-06-01T07:03:29.865Z,91.00
2018-06-01T07:05:55.724Z,91.37
2018-06-01T07:08:21.590Z,90.98
2018-06-01T07:10:47.468Z,91.32
2018-06-01T07:13:13.338Z,91.71
2018-06-01T07:15:39.189Z,91.43
2018-06-01T07:18:05.062Z,90.88
2018-06-01T07:20:30.888Z,90.92
2018-06-01T07:22:56.744Z,90.27
2018-06-01T07:25:22.590Z,89.92
2018-06-01T07:27:48.490Z,90.42
2018-06-01T07:30:14.312Z,90.03
2018-06-01T07:32:40.240Z,89.48
2018-06-01T07:35:06.076Z,88.93
2018-06-01T07:37:31.958Z,88.80
2018-06-01T07:39:57.829Z,88.50
2018-06-01T07:42:23.687Z,88.14
2018-06-01T07:44:49.557Z,88.29
2018-06-01T07:47:15.434Z,88.54
2018-06-01T07:49:41.277Z,88.53
2018-06-01T07:52:07.117Z,88.10
2018-06-01T07:54:32.979Z,87.36
2018-06-01T07:56:58.849Z,87.81
2018-06-01T07:59:24.713Z,87.74
2018-06-01T08:01:50.656Z,88.97
2018-06-01T08:04:16.493Z,87.61
2018-06-01T08:06:42.344Z,88.12
2018-06-01T08:09:08.245Z,86.99
2018-06-01T08:11:34.065Z,87.00
2018-06-01T08:13:59.947Z,86.15
2018-06-01T08:16:25.800Z,86.48
2018-06-01T08:18:51.649Z,85.87
2018-06-01T08:21:17.473Z,85.91
2018-06-01T08:23:43.332Z,85.69
2018-06-01T08:26:09.192Z,84.70
2018-06-01T08:28:35.049Z,83.42
2018-06-01T08:31:00.895Z,83.03
2018-06-01T08:33:26.709Z,85.03
2018-06-01T08:35:52.558Z,83.70
2018-06-01T08:38:18.405Z,82.80
2018-06-01T08:40:44.285Z,82.34
2018-06-01T08:43:10.136Z,83.66
2018-06-01T08:45:35.976Z,83.50
2018-06-01T08:48:01.815Z,83.29
2018-06-01T08:50:27.693Z,83.78
2018-06-01T08:52:53.512Z,84.11
2018-06-01T08:55:19.352Z,83.71
2018-06-01T08:57:45.177Z,82.91
2018-06-01T09:00:11.059Z,82.15
2018-06-01T09:02:36.955Z,83.23
2018-06-01T09:05:02.853Z,82.78
2018-06-01T09:07:28.723Z,83.03
2018-06-01T09:09:54.591Z,82.83
2018-06-01T09:12:20.433Z,83.14
2018-06-01T09:14:46.270Z,82.65
2018-06-01T09:17:12.129Z,81.63
2018-06-01T09:19:37.953Z,82.56
2018-06-01T09:22:03.857Z,82.76
2018-06-01T09:24:29.713Z,82.15
2018-06-01T09:26:55.553Z,80.50
2018-06-01T09:29:21.429Z,80.06
2018-06-01T09:31:47.285Z,81.62
2018-06-01T09:34:13.146Z,81.43
2018-06-01T09:36:38.984Z,80.72
2018-06-01T09:39:04.868Z,78.83
2018-06-01T09:41:30.700Z,78.37
2018-06-01T09:43:56.650Z,79.43
2018-06-01T09:46:22.610Z,78.97
2018-06-01T09:48:48.500Z,77.86
2018-06-01T09:51:14.348Z,77.81
2018-06-01T09:53:40.164Z,75.72
2018-06-01T09:56:06.044Z,76.53
2018-06-01T09:58:31.902Z,76.29
2018-06-01T10:00:59.810Z,75.66
2018-06-01T10:03:25.811Z,75.08
2018-06-01T10:05:51.652Z,73.24
2018-06-01T10:08:17.489Z,75.16
2018-06-01T10:10:43.336Z,73.78
2018-06-01T10:13:09.181Z,71.82
2018-06-01T10:15:35.070Z,70.91
2018-06-01T10:18:00.937Z,69.87
2018-06-01T10:20:26.864Z,67.76
2018-06-01T10:22:53.565Z,68.16
2018-06-01T10:25:19.426Z,69.50
2018-06-01T10:27:45.287Z,70.22
2018-06-01T10:30:11.129Z,71.57
2018-06-01T10:32:36.985Z,68.37
2018-06-01T10:35:02.942Z,68.60
2018-06-01T10:37:28.860Z,70.22
2018-06-01T10:39:54.720Z,70.33
2018-06-01T10:42:20.563Z,69.37
2018-06-01T10:44:46.418Z,69.22
2018-06-01T10:47:12.230Z,70.17
2018-06-01T10:49:38.119Z,70.96
2018-06-01T10:52:03.985Z,70.07
2018-06-01T10:54:30.044Z,70.07
2018-06-01T10:56:55.862Z,68.02
2018-06-01T10:59:21.737Z,68.37
2018-06-01T11:01:47.606Z,69.32
2018-06-01T11:04:13.462Z,69.35
2018-06-01T11:06:39.323Z,67.40
2018-06-01T11:09:05.170Z,68.28
2018-06-01T11:11:31.017Z,68.97
2018-06-01T11:13:56.874Z,70.31
2018-06-01T11:16:22.712Z,68.24
2018-06-01T11:18:48.561Z,69.03
2018-06-01T11:21:14.418Z,69.28
2018-06-01T11:23:40.238Z,69.20
2018-06-01T11:26:06.161Z,68.50
2018-06-01T11:28:32.022Z,66.46
2018-06-01T11:30:57.941Z,65.03
2018-06-01T11:33:23.837Z,65.66
2018-06-01T11:35:49.728Z,66.08
2018-06-01T11:38:16.704Z,65.15
2018-06-01T11:40:42.604Z,65.13
2018-06-01T11:43:08.469Z,64.77
2018-06-01T11:45:34.297Z,62.95
2018-06-01T11:48:00.136Z,61.93
2018-06-01T11:50:26.013Z,63.23
2018-06-01T11:52:51.847Z,63.71
2018-06-01T11:55:17.707Z,64.37
2018-06-01T11:57:43.594Z,63.08
2018-06-01T12:00:09.463Z,62.35
2018-06-01T12:02:36.150Z,61.70
2018-06-01T12:05:02.001Z,58.86
2018-06-01T12:07:27.852Z,60.12
2018-06-01T12:09:53.715Z,58.84
2018-06-01T12:12:19.564Z,55.92
2018-06-01T12:14:45.440Z,55.55
2018-06-01T12:17:11.298Z,54.33
2018-06-01T12:19:37.152Z,55.65
2018-06-01T12:22:03.030Z,56.36
2018-06-01T12:24:28.894Z,57.43
2018-06-01T12:26:54.756Z,57.98
2018-06-01T12:29:20.684Z,58.07
2018-06-01T12:31:46.537Z,57.82
2018-06-01T12:34:12.398Z,55.57
2018-06-01T12:36:38.261Z,56.37
2018-06-01T12:39:04.974Z,57.84
2018-06-01T12:41:30.846Z,56.37
2018-06-01T12:43:56.673Z,54.87
2018-06-01T12:46:22.537Z,55.17
2018-06-01T12:48:48.415Z,55.79
2018-06-01T12:51:14.311Z,54.91
2018-06-01T12:53:40.146Z,55.71
2018-06-01T12:56:05.989Z,56.17
2018-06-01T12:58:31.841Z,57.24
2018-06-01T13:00:57.744Z,57.46
2018-06-01T13:03:23.634Z,57.07
2018-06-01T13:05:49.469Z,58.20
2018-06-01T13:08:15.319Z,57.58
2018-06-01T13:10:41.193Z,58.33
2018-06-01T13:13:07.077Z,59.42
2018-06-01T13:15:32.947Z,57.04
2018-06-01T13:17:58.823Z,56.99
2018-06-01T13:20:24.708Z,54.28
2018-06-01T13:22:50.561Z,51.88
2018-06-01T13:25:16.426Z,51.78
2018-06-01T13:27:42.284Z,48.66
2018-06-01T13:30:08.168Z,49.99
2018-06-01T13:32:34.040Z,50.17
2018-06-01T13:34:59.933Z,49.94
2018-06-01T13:37:25.797Z,52.21
2018-06-01T13:39:51.613Z,51.82
2018-06-01T13:42:17.454Z,51.59
2018-06-01T13:44:43.315Z,51.54
2018-06-01T13:47:09.285Z,51.80
2018-06-01T13:49:35.141Z,52.50
2018-06-01T13:52:01.839Z,52.92
2018-06-01T13:54:27.715Z,53.21
2018-06-01T13:56:53.618Z,53.78
2018-06-01T13:59:19.470Z,54.24
2018-06-01T14:01:45.412Z,54.13
2018-06-01T14:04:11.306Z,51.41
2018-06-01T14:06:37.202Z,50.95
2018-06-01T14:09:05.136Z,52.14
2018-06-01T14:11:31.026Z,53.60
2018-06-01T14:13:56.912Z,50.61
2018-06-01T14:16:22.827Z,47.85
2018-06-01T14:18:48.833Z,48.56
2018-06-01T14:21:14.789Z,46.77
2018-06-01T14:23:40.669Z,50.36
2018-06-01T14:26:06.557Z,51.70
2018-06-01T14:28:32.456Z,53.30
2018-06-01T14:30:58.325Z,52.64
2018-06-01T14:33:24.198Z,53.59
2018-06-01T14:35:50.108Z,52.86
2018-06-01T14:38:16.001Z,55.01
2018-06-01T14:40:41.944Z,53.72
2018-06-01T14:43:07.811Z,49.61
2018-06-01T14:45:33.784Z,46.61
2018-06-01T14:47:59.721Z,49.74
2018-06-01T14:50:25.677Z,49.39
2018-06-01T14:52:51.583Z,48.41
2018-06-01T14:55:17.469Z,46.96
2018-06-01T14:57:43.473Z,46.73
2018-06-01T15:00:09.358Z,46.24
2018-06-01T15:02:35.229Z,45.84
2018-06-01T15:05:01.109Z,45.87
2018-06-01T15:07:27.001Z,48.14
2018-06-01T15:09:52.880Z,43.93
2018-06-01T15:12:18.778Z,47.17
2018-06-01T15:14:44.658Z,48.69
2018-06-01T15:17:10.546Z,49.40
2018-06-01T15:19:36.418Z,48.65
2018-06-01T15:22:02.277Z,49.97
2018-06-01T15:24:28.140Z,49.67
2018-06-01T15:26:53.995Z,49.81
2018-06-01T15:29:19.898Z,48.66
2018-06-01T15:31:45.767Z,48.68
2018-06-01T15:34:11.614Z,49.73
2018-06-01T15:36:37.529Z,49.56
2018-06-01T15:39:05.230Z,49.28
2018-06-01T15:41:31.134Z,49.74
2018-06-01T15:43:57.027Z,50.27
2018-06-01T15:46:22.871Z,50.46
2018-06-01T15:48:48.744Z,49.87
2018-06-01T15:51:14.645Z,49.99
2018-06-01T15:53:40.551Z,50.21
2018-06-01T15:56:06.448Z,46.79
2018-06-01T15:58:32.601Z,48.71
2018-06-01T16:00:58.476Z,48.90
2018-06-01T16:03:24.373Z,47.87
2018-06-01T16:05:50.257Z,51.56
2018-06-01T16:08:16.154Z,51.44
2018-06-01T16:10:42.023Z,50.98
2018-06-01T16:13:07.928Z,51.25
2018-06-01T16:15:33.797Z,53.21
2018-06-01T16:17:59.654Z,54.42
2018-06-01T16:20:25.606Z,55.67
2018-06-01T16:22:51.513Z,53.55
2018-06-01T16:25:17.374Z,53.99
2018-06-01T16:27:43.262Z,52.15
2018-06-01T16:30:09.113Z,52.44
2018-06-01T16:32:34.997Z,52.74
2018-06-01T16:35:00.867Z,49.63
2018-06-01T16:37:26.775Z,51.29
2018-06-01T16:39:52.664Z,53.32
2018-06-01T16:42:18.555Z,52.33
2018-06-01T16:44:44.508Z,50.14
2018-06-01T16:47:10.399Z,49.28
2018-06-01T16:49:36.266Z,51.63
2018-06-01T16:52:02.153Z,53.63
2018-06-01T16:54:28.107Z,51.70
2018-06-01T16:56:53.909Z,50.27
2018-06-01T16:59:19.799Z,51.24
2018-06-01T17:01:45.675Z,49.08
2018-06-01T17:04:11.569Z,50.13
2018-06-01T17:06:37.440Z,51.29
2018-06-01T17:09:03.358Z,50.08
2018-06-01T17:11:29.219Z,50.04
2018-06-01T17:13:55.117Z,49.34
2018-06-01T17:16:21.008Z,50.09
2018-06-01T17:18:46.858Z,50.29
2018-06-01T17:21:12.778Z,49.93
2018-06-01T17:23:38.667Z,50.35
2018-06-01T17:26:04.598Z,50.27
2018-06-01T17:28:30.435Z,51.59
2018-06-01T17:30:56.337Z,50.93
2018-06-01T17:33:22.253Z,51.52
2018-06-01T17:35:48.088Z,51.88
2018-06-01T17:38:13.965Z,51.76
2018-06-01T17:40:39.847Z,52.80
2018-06-01T17:43:05.751Z,52.27
2018-06-01T17:45:31.652Z,50.76
2018-06-01T17:47:57.570Z,51.71
2018-06-01T17:50:23.438Z,52.16
2018-06-01T17:52:49.309Z,53.14
2018-06-01T17:55:15.169Z,52.52
2018-06-01T17:57:41.053Z,52.44
2018-06-01T18:00:06.979Z,54.19
2018-06-01T18:02:32.783Z,54.75
2018-06-01T18:04:58.638Z,55.97
2018-06-01T18:07:24.498Z,57.33
2018-06-01T18:09:50.416Z,57.67
2018-06-01T18:12:16.318Z,56.87
2018-06-01T18:14:42.206Z,59.01
2018-06-01T18:17:08.075Z,58.16
2018-06-01T18:19:33.965Z,59.01
2018-06-01T18:21:59.910Z,59.24
2018-06-01T18:24:25.795Z,59.73
2018-06-01T18:26:51.664Z,60.69
2018-06-01T18:29:17.574Z,62.10
2018-06-01T18:31:43.462Z,62.84
2018-06-01T18:34:09.329Z,64.98
2018-06-01T18:36:35.207Z,66.66
2018-06-01T18:39:01.074Z,66.25
2018-06-01T18:41:26.937Z,67.60
2018-06-01T18:43:53.616Z,66.40
2018-06-01T18:46:19.517Z,66.53
2018-06-01T18:48:45.394Z,66.45
2018-06-01T18:51:11.294Z,66.95
2018-06-01T18:53:37.265Z,67.05
2018-06-01T18:56:03.196Z,67.53
2018-06-01T18:58:29.105Z,68.12
2018-06-01T19:00:55.022Z,68.85
2018-06-01T19:03:20.907Z,69.83
2018-06-01T19:05:46.762Z,69.08
2018-06-01T19:08:12.736Z,70.14
2018-06-01T19:10:38.577Z,70.30
2018-06-01T19:13:04.562Z,69.88
2018-06-01T19:15:30.422Z,70.55
2018-06-01T19:17:56.296Z,69.18
2018-06-01T19:20:22.182Z,69.67
2018-06-01T19:22:48.074Z,70.14
2018-06-01T19:25:13.969Z,70.85
2018-06-01T19:27:39.865Z,71.85
2018-06-01T19:30:05.793Z,72.06
2018-06-01T19:32:31.661Z,71.29
2018-06-01T19:34:57.522Z,70.23
2018-06-01T19:37:23.399Z,70.92
2018-06-01T19:39:49.295Z,71.57
2018-06-01T19:42:15.239Z,73.38
2018-06-01T19:44:41.177Z,74.46
2018-06-01T19:47:07.057Z,74.23
2018-06-01T19:49:32.953Z,74.95
2018-06-01T19:51:58.824Z,73.70
2018-06-01T19:54:24.729Z,73.51
2018-06-01T19:56:50.618Z,73.90
2018-06-01T19:59:16.511Z,73.62
2018-06-01T20:01:42.394Z,74.11
2018-06-01T20:04:08.269Z,75.88
2018-06-01T20:06:34.249Z,77.10
2018-06-01T20:09:00.102Z,75.56
2018-06-01T20:11:25.937Z,76.13
2018-06-01T20:13:51.813Z,75.90
2018-06-01T20:16:17.667Z,76.04
2018-06-01T20:18:43.514Z,76.21
2018-06-01T20:21:09.387Z,76.08
2018-06-01T20:23:35.301Z,76.38
2018-06-01T20:26:01.170Z,76.27
2018-06-01T20:28:27.088Z,76.43
2018-06-01T20:30:52.935Z,76.99
2018-06-01T20:33:18.832Z,77.43
2018-06-01T20:35:44.728Z,77.68
2018-06-01T20:38:10.567Z,78.41
2018-06-01T20:40:36.412Z,79.08
2018-06-01T20:43:02.321Z,78.62
2018-06-01T20:45:28.227Z,78.38
2018-06-01T20:47:54.106Z,79.01
2018-06-01T20:50:19.987Z,79.42
2018-06-01T20:52:45.911Z,80.61
2018-06-01T20:55:11.778Z,81.07
2018-06-01T20:57:37.673Z,79.96
2018-06-01T21:00:03.641Z,80.40
2018-06-01T21:02:29.557Z,80.87
2018-06-01T21:04:55.410Z,81.70
2018-06-01T21:07:21.269Z,80.34
2018-06-01T21:09:47.251Z,78.80
2018-06-01T21:12:13.149Z,79.11
2018-06-01T21:14:39.028Z,79.61
2018-06-01T21:17:04.910Z,79.44
2018-06-01T21:19:30.799Z,79.44
2018-06-01T21:21:56.720Z,79.62
2018-06-01T21:24:22.575Z,80.19
2018-06-01T21:26:48.458Z,81.48
2018-06-01T21:29:14.340Z,82.08
2018-06-01T21:31:40.252Z,81.70
2018-06-01T21:34:06.145Z,80.80
2018-06-01T21:36:32.025Z,81.03
2018-06-01T21:38:57.941Z,81.60
2018-06-01T21:41:23.792Z,82.41
2018-06-01T21:43:49.695Z,82.95
2018-06-01T21:46:15.584Z,82.67
2018-06-01T21:48:41.465Z,81.35
2018-06-01T21:51:07.324Z,80.91
2018-06-01T21:53:33.161Z,81.61
2018-06-01T21:55:59.022Z,81.58
2018-06-01T21:58:24.889Z,83.75
2018-06-01T22:00:50.748Z,85.94
2018-06-01T22:03:16.632Z,85.43
2018-06-01T22:05:42.492Z,85.94
2018-06-01T22:08:08.356Z,85.97
2018-06-01T22:10:34.270Z,86.89
2018-06-01T22:13:00.132Z,86.03
2018-06-01T22:15:25.996Z,85.00
2018-06-01T22:17:51.865Z,83.64
2018-06-01T22:20:17.782Z,82.96
2018-06-01T22:22:43.669Z,82.67
2018-06-01T22:25:09.556Z,82.78
2018-06-01T22:27:35.439Z,82.53
2018-06-01T22:30:01.281Z,81.96
2018-06-01T22:32:27.113Z,83.27
2018-06-01T22:34:52.981Z,84.29
2018-06-01T22:37:18.871Z,85.12
2018-06-01T22:39:44.734Z,83.93
2018-06-01T22:42:10.621Z,82.43
2018-06-01T22:44:36.445Z,82.74
2018-06-01T22:47:02.321Z,82.87
2018-06-01T22:49:28.152Z,83.72
2018-06-01T22:51:54.037Z,84.05
2018-06-01T22:54:19.889Z,85.85
2018-06-01T22:56:45.772Z,86.70
2018-06-01T22:59:11.621Z,85.67
2018-06-01T23:01:37.480Z,84.88
2018-06-01T23:04:03.345Z,84.13
2018-06-01T23:06:29.229Z,83.45
2018-06-01T23:08:55.074Z,83.45
2018-06-01T23:11:20.917Z,84.63
2018-06-01T23:13:46.765Z,83.79
2018-06-01T23:16:12.616Z,84.02
2018-06-01T23:18:38.494Z,84.15
2018-06-01T23:21:04.349Z,83.66
2018-06-01T23:23:30.254Z,85.82
2018-06-01T23:25:56.116Z,84.93
2018-06-01T23:28:21.976Z,85.32
2018-06-01T23:30:47.846Z,84.77
2018-06-01T23:33:13.696Z,84.07
2018-06-01T23:35:39.580Z,85.90
2018-06-01T23:38:05.398Z,86.29
2018-06-01T23:40:31.269Z,86.68
2018-06-01T23:42:57.109Z,86.63
2018-06-01T23:45:22.968Z,86.10
2018-06-01T23:47:48.809Z,84.57
2018-06-01T23:50:14.665Z,83.96
2018-06-01T23:52:40.586Z,83.51
2018-06-01T23:55:06.469Z,84.75
2018-06-01T23:57:32.328Z,85.44
2018-06-01T23:59:58.173Z,84.73
